Time;durP1;ratioP1;P1;durP2;ratioP2;P2;SDS_P1;SDS_P2;PMS_P1;PMS_P2;Temp;Humidity;BMP_temperature;BMP_pressure;BME280_temperature;BME280_humidity;BME280_pressure;Samples;Min_cycle;Max_cycle;Signal;HPM_P1;HPM_P2
2023/07/17 00:00:36;;;;;;;11.40;8.50;;;;;;;21.47;71.15;99867.64;105571;1259;72724;-74
2023/07/17 00:03:13;;;;;;;13.40;9.50;;;;;;;21.44;71.54;99862.90;105280;1257;60847;-75
2023/07/17 00:05:41;;;;;;;10.40;8.10;;;;;;;21.40;71.56;99866.06;105309;1262;60438;-75
2023/07/17 00:08:09;;;;;;;23.10;8.70;;;;;;;21.38;71.66;99866.81;106244;1256;72640;-75
2023/07/17 00:10:38;;;;;;;11.70;8.60;;;;;;;21.35;71.86;99866.98;107877;1256;68965;-76
2023/07/17 00:13:06;;;;;;;9.80;8.80;;;;;;;21.34;71.99;99872.34;107318;1261;71424;-75
2023/07/17 00:15:33;;;;;;;9.20;8.30;;;;;;;21.32;71.79;99872.56;105562;1259;60552;-76
2023/07/17 00:18:01;;;;;;;8.60;7.80;;;;;;;21.31;71.85;99868.89;105584;1257;60486;-78
2023/07/17 00:20:28;;;;;;;12.00;8.20;;;;;;;21.38;71.82;99864.95;105656;1261;74178;-77
2023/07/17 00:22:56;;;;;;;14.30;7.70;;;;;;;21.46;72.00;99862.43;105596;1257;71188;-74
2023/07/17 00:25:23;;;;;;;10.10;8.00;;;;;;;21.47;71.86;99857.37;105354;1257;72641;-78
2023/07/17 00:27:51;;;;;;;10.10;8.20;;;;;;;21.46;71.85;99857.30;106116;1259;60435;-76
2023/07/17 00:30:18;;;;;;;9.90;8.00;;;;;;;21.47;72.42;99855.15;106037;1262;60485;-77
2023/07/17 00:32:46;;;;;;;13.00;9.20;;;;;;;21.48;72.06;99853.56;105433;1257;73051;-76
2023/07/17 00:35:14;;;;;;;9.50;8.40;;;;;;;21.48;71.83;99853.39;105582;1257;70255;-74
2023/07/17 00:37:42;;;;;;;10.50;8.60;;;;;;;21.48;71.75;99852.13;105282;1262;70427;-73
2023/07/17 00:40:10;;;;;;;11.80;8.60;;;;;;;21.48;71.76;99852.02;106211;1256;60463;-76
2023/07/17 00:42:38;;;;;;;10.50;8.10;;;;;;;21.47;71.63;99846.02;106783;1262;60380;-74
2023/07/17 00:45:06;;;;;;;11.80;9.70;;;;;;;21.47;71.57;99846.29;105525;1263;315648;-75
2023/07/17 00:50:01;;;;;;;10.60;9.20;;;;;;;21.57;70.88;99842.02;102482;1297;601260;-74
2023/07/17 00:52:28;;;;;;;12.50;8.70;;;;;;;21.63;70.52;99844.46;104762;1266;60401;-75
2023/07/17 00:54:56;;;;;;;10.80;9.30;;;;;;;21.64;70.57;99846.55;104699;1272;59386;-75
2023/07/17 00:57:25;;;;;;;12.50;8.70;;;;;;;21.64;70.94;99846.42;104542;1270;72004;-76
2023/07/17 00:59:52;;;;;;;10.10;9.10;;;;;;;21.62;71.00;99845.80;105677;1267;68893;-75
2023/07/17 01:02:20;;;;;;;13.10;9.30;;;;;;;21.60;71.12;99843.72;107678;1273;71144;-75
2023/07/17 01:04:48;;;;;;;13.80;9.50;;;;;;;21.60;71.59;99844.91;106346;1261;219386;-75
2023/07/17 01:07:16;;;;;;;10.00;8.90;;;;;;;21.59;72.02;99843.41;106123;1257;60118;-79
2023/07/17 01:09:44;;;;;;;9.50;8.50;;;;;;;21.66;72.00;99840.58;106537;1255;72210;-76
2023/07/17 01:12:11;;;;;;;11.80;9.50;;;;;;;21.70;71.81;99836.41;108111;1256;67755;-76
2023/07/17 01:14:41;;;;;;;9.80;8.80;;;;;;;21.69;72.13;99837.27;107769;1260;71272;-76
2023/07/17 01:17:09;;;;;;;10.30;8.70;;;;;;;21.67;72.16;99832.33;105757;1261;59753;-78
2023/07/17 01:19:38;;;;;;;10.60;9.10;;;;;;;21.63;72.30;99832.79;105987;1263;59690;-77
2023/07/17 01:22:31;;;;;;;12.70;10.20;;;;;;;21.57;71.94;99836.67;105529;1261;71829;-77
2023/07/17 01:24:59;;;;;;;12.30;9.50;;;;;;;21.50;71.75;99836.84;105492;1261;69939;-75
2023/07/17 01:27:26;;;;;;;11.40;9.30;;;;;;;21.46;71.33;99837.52;105574;1263;71644;-75
2023/07/17 01:29:54;;;;;;;12.10;9.60;;;;;;;21.45;71.18;99835.98;105510;1257;59762;-75
2023/07/17 01:32:21;;;;;;;9.20;8.30;;;;;;;21.45;70.85;99836.79;105356;1256;59949;-74
2023/07/17 01:34:49;;;;;;;10.80;9.30;;;;;;;21.46;70.95;99839.02;105414;1258;73285;-74
2023/07/17 01:37:17;;;;;;;10.40;8.50;;;;;;;21.54;70.73;99841.20;105444;1261;69046;-75
2023/07/17 01:39:45;;;;;;;10.20;8.80;;;;;;;21.58;70.48;99838.98;107332;1257;71415;-75
2023/07/17 01:42:13;;;;;;;10.90;8.20;;;;;;;21.57;70.53;99840.08;108654;1257;58773;-77
2023/07/17 01:44:43;;;;;;;10.40;8.60;;;;;;;21.56;70.51;99840.17;107971;1263;59618;-75
2023/07/17 01:47:10;;;;;;;10.30;8.60;;;;;;;21.57;70.39;99839.64;108476;1258;72217;-73
2023/07/17 01:49:41;;;;;;;9.70;8.80;;;;;;;21.56;70.48;99840.71;107530;1257;68713;-76
2023/07/17 01:52:10;;;;;;;10.50;9.40;;;;;;;21.57;70.55;99843.11;107355;1262;72626;-78
2023/07/17 01:54:38;;;;;;;10.00;8.90;;;;;;;21.56;70.41;99842.55;107434;1257;59200;-79
2023/07/17 01:57:06;;;;;;;10.70;8.70;;;;;;;21.56;70.48;99844.88;109090;1257;58972;-79
2023/07/17 01:59:34;;;;;;;10.80;8.60;;;;;;;21.58;70.50;99845.56;108214;1258;71677;-76
2023/07/17 02:02:02;;;;;;;10.20;8.90;;;;;;;21.66;70.28;99845.69;107048;1262;71772;-76
2023/07/17 02:04:29;;;;;;;10.40;9.40;;;;;;;21.74;70.48;99847.06;107161;1257;70996;-75
2023/07/17 02:06:57;;;;;;;8.90;8.00;;;;;;;21.74;70.78;99848.21;108339;1262;59463;-80
2023/07/17 02:09:26;;;;;;;9.50;8.40;;;;;;;21.73;70.63;99849.04;107947;1257;60120;-79
2023/07/17 02:11:54;;;;;;;11.60;8.60;;;;;;;21.71;70.93;99847.45;109050;1257;71529;-78
2023/07/17 02:14:22;;;;;;;10.30;9.20;;;;;;;21.70;70.92;99845.98;109042;1257;69026;-77
2023/07/17 02:16:50;;;;;;;12.70;9.20;;;;;;;21.68;71.22;99845.77;107836;1260;71361;-77
2023/07/17 02:19:19;;;;;;;10.20;9.00;;;;;;;21.66;71.49;99842.73;106613;1259;59546;-77
2023/07/17 02:21:46;;;;;;;12.10;9.10;;;;;;;21.63;71.44;99846.90;105630;1258;60030;-81
2023/07/17 02:24:13;;;;;;;9.30;8.40;;;;;;;21.60;71.60;99847.34;105602;1263;71756;-79
2023/07/17 02:26:41;;;;;;;9.00;8.10;;;;;;;21.64;71.67;99847.90;105458;1263;69408;-77
2023/07/17 02:29:09;;;;;;;9.60;8.00;;;;;;;21.68;71.53;99848.90;105531;1258;72981;-81
2023/07/17 02:31:37;;;;;;;10.10;8.80;;;;;;;21.66;71.66;99849.59;105472;1263;59704;-81
2023/07/17 02:34:07;;;;;;;10.30;8.70;;;;;;;21.61;71.77;99853.73;105435;1258;59619;-81
2023/07/17 02:36:37;;;;;;;10.40;9.20;;;;;;;21.58;71.99;99859.73;105659;1257;73233;-80
2023/07/17 02:39:05;;;;;;;10.20;9.20;;;;;;;21.55;72.04;99861.83;105651;1258;70297;-78
2023/07/17 02:41:32;;;;;;;12.60;10.10;;;;;;;21.53;71.89;99867.83;107420;1258;72815;-80
2023/07/17 02:44:00;;;;;;;10.40;9.40;;;;;;;21.51;71.98;99868.98;108091;1257;59195;-78
2023/07/17 02:46:27;;;;;;;9.90;8.90;;;;;;;21.48;72.09;99869.23;106580;1257;59690;-79
2023/07/17 02:48:57;;;;;;;11.10;8.40;;;;;;;21.46;72.53;99872.81;105494;1261;73112;-78
2023/07/17 02:51:24;;;;;;;14.50;9.60;;;;;;;21.51;72.68;99873.03;105527;1264;68957;-77
2023/07/17 02:53:52;;;;;;;13.40;9.90;;;;;;;21.57;72.80;99878.41;105818;1262;73237;-76
2023/07/17 02:56:20;;;;;;;12.00;9.00;;;;;;;21.57;72.83;99875.10;105751;1260;60761;-78
2023/07/17 02:58:48;;;;;;;14.20;9.90;;;;;;;21.55;72.83;99875.81;105541;1257;59525;-77
2023/07/17 03:01:17;;;;;;;11.60;9.00;;;;;;;21.53;72.84;99873.30;105954;1257;71865;-77
2023/07/17 03:03:46;;;;;;;12.60;9.20;;;;;;;21.54;72.79;99873.08;106926;1257;69315;-77
2023/07/17 03:06:14;;;;;;;10.80;9.20;;;;;;;21.54;72.90;99875.90;106818;1256;71409;-78
2023/07/17 03:08:41;;;;;;;13.90;9.60;;;;;;;21.56;72.99;99873.98;105673;1264;59730;-75
2023/07/17 03:11:09;;;;;;;11.80;9.30;;;;;;;21.59;73.03;99875.85;106492;1257;59610;-74
2023/07/17 03:13:36;;;;;;;14.80;9.50;;;;;;;21.68;72.84;99878.64;106402;1257;71800;-73
2023/07/17 03:16:04;;;;;;;11.60;9.20;;;;;;;21.76;72.59;99883.09;106228;1257;69232;-74
2023/07/17 03:18:31;;;;;;;15.60;9.60;;;;;;;21.74;72.31;99877.14;105577;1260;73532;-73
2023/07/17 03:20:59;;;;;;;10.00;8.60;;;;;;;21.74;72.04;99880.39;105183;1267;59519;-73
2023/07/17 03:23:28;;;;;;;12.00;8.50;;;;;;;21.72;71.90;99882.95;105387;1262;60041;-73
2023/07/17 03:25:56;;;;;;;11.10;8.40;;;;;;;21.72;71.68;99882.89;105278;1263;73029;-75
2023/07/17 03:28:24;;;;;;;9.20;7.80;;;;;;;21.72;71.45;99887.59;105399;1258;70258;-75
2023/07/17 03:30:55;;;;;;;11.50;8.50;;;;;;;21.71;71.42;99890.46;105340;1263;72119;-74
2023/07/17 03:33:24;;;;;;;9.10;8.10;;;;;;;21.70;71.49;99888.08;105308;1263;59601;-76
2023/07/17 03:35:52;;;;;;;10.00;9.00;;;;;;;21.72;71.37;99885.48;105268;1263;59548;-74
2023/07/17 03:38:19;;;;;;;10.00;8.50;;;;;;;21.76;71.33;99882.17;105594;1259;73112;-75
2023/07/17 03:40:47;;;;;;;9.90;7.20;;;;;;;21.88;70.72;99884.39;107962;1260;67890;-73
2023/07/17 03:43:15;;;;;;;9.00;7.30;;;;;;;21.98;70.06;99889.86;106809;1264;73820;-77
2023/07/17 03:45:42;;;;;;;10.70;7.90;;;;;;;22.03;70.07;99891.16;107993;1257;60065;-75
2023/07/17 03:48:10;;;;;;;8.70;7.70;;;;;;;22.09;70.15;99888.66;106966;1263;59616;-75
2023/07/17 03:50:39;;;;;;;7.90;7.20;;;;;;;22.18;70.10;99894.80;106443;1257;71822;-75
2023/07/17 03:53:07;;;;;;;9.00;7.40;;;;;;;22.26;69.68;99891.34;105244;1258;69344;-76
2023/07/17 03:55:36;;;;;;;14.20;8.10;;;;;;;22.32;69.48;99893.30;105256;1261;72474;-78
2023/07/17 03:58:07;;;;;;;13.30;9.10;;;;;;;22.39;69.60;99890.13;105132;1260;60152;-75
2023/07/17 04:00:35;;;;;;;8.50;7.40;;;;;;;22.45;69.32;99891.98;105309;1257;59810;-76
2023/07/17 04:03:02;;;;;;;10.30;7.10;;;;;;;22.51;68.94;99892.86;105239;1263;73044;-75
2023/07/17 04:05:35;;;;;;;11.00;8.20;;;;;;;22.57;68.68;99889.22;104992;1263;70143;-76
2023/07/17 04:08:02;;;;;;;12.20;7.50;;;;;;;22.61;68.37;99890.96;105135;1260;71624;-75
2023/07/17 04:10:31;;;;;;;12.00;7.20;;;;;;;22.65;68.13;99889.41;105564;1260;60302;-80
2023/07/17 04:12:58;;;;;;;13.10;7.80;;;;;;;22.70;68.06;99893.83;106899;1257;60046;-76
2023/07/17 04:15:29;;;;;;;10.40;7.50;;;;;;;22.78;67.79;99896.23;108785;1257;71872;-77
2023/07/17 04:18:00;;;;;;;11.00;7.60;;;;;;;22.85;67.69;99900.74;107893;1258;70065;-78
2023/07/17 04:20:28;;;;;;;8.50;7.30;;;;;;;22.92;67.45;99900.54;105720;1263;71455;-77
2023/07/17 04:22:56;;;;;;;7.80;7.10;;;;;;;22.98;67.24;99902.00;105529;1263;59644;-77
2023/07/17 04:25:24;;;;;;;9.70;8.50;;;;;;;23.06;67.29;99903.02;105774;1259;60015;-76
2023/07/17 04:27:53;;;;;;;11.70;8.10;;;;;;;23.14;67.03;99898.21;105642;1257;72943;-75
2023/07/17 04:30:22;;;;;;;8.70;7.70;;;;;;;23.23;66.50;99895.75;105460;1263;68877;-78
2023/07/17 04:32:53;;;;;;;8.20;7.40;;;;;;;23.32;66.33;99895.88;105372;1263;71086;-74
2023/07/17 04:35:20;;;;;;;10.10;8.20;;;;;;;23.44;66.03;99897.02;105195;1257;60394;-75
2023/07/17 04:37:49;;;;;;;9.30;7.60;;;;;;;23.54;65.41;99896.08;104997;1257;59758;-76
2023/07/17 04:40:17;;;;;;;8.00;7.20;;;;;;;23.68;65.12;99893.02;105471;1260;75415;-75
2023/07/17 04:42:46;;;;;;;10.00;7.60;;;;;;;23.79;64.84;99891.66;106827;1258;70158;-75
2023/07/17 04:45:16;;;;;;;8.40;7.50;;;;;;;23.91;64.60;99888.47;108566;1257;72095;-76
2023/07/17 04:47:46;;;;;;;11.20;8.00;;;;;;;24.04;64.14;99891.43;107613;1257;59046;-75
2023/07/17 04:50:14;;;;;;;12.80;8.30;;;;;;;24.15;63.76;99890.96;105700;1258;59705;-77
2023/07/17 04:52:42;;;;;;;12.70;11.40;;;;;;;24.24;63.35;99889.55;106086;1256;71760;-78
2023/07/17 04:55:09;;;;;;;7.50;6.80;;;;;;;24.32;62.78;99887.67;106725;1256;70095;-82
2023/07/17 04:57:37;;;;;;;7.60;6.90;;;;;;;24.39;62.52;99886.01;106292;1259;70317;-82
2023/07/17 05:00:09;;;;;;;8.60;7.60;;;;;;;24.44;62.08;99881.45;106053;1263;60552;-80
2023/07/17 05:02:37;;;;;;;7.80;6.20;;;;;;;24.49;61.97;99880.41;105857;1263;60689;-79
2023/07/17 05:05:05;;;;;;;10.70;9.60;;;;;;;24.54;61.99;99880.33;105540;1256;72597;-79
2023/07/17 05:07:33;;;;;;;10.70;8.10;;;;;;;24.60;61.72;99879.56;105581;1260;70580;-76
2023/07/17 05:10:00;;;;;;;8.50;7.20;;;;;;;24.66;61.73;99878.64;105376;1262;72768;-77
2023/07/17 05:12:29;;;;;;;8.50;6.50;;;;;;;24.72;61.07;99878.15;105463;1257;60533;-79
2023/07/17 05:14:57;;;;;;;8.20;7.40;;;;;;;24.79;61.03;99877.83;107755;1256;60330;-76
2023/07/17 05:17:25;;;;;;;7.30;6.60;;;;;;;24.89;61.07;99877.91;108614;1256;74784;-77
2023/07/17 05:19:52;;;;;;;10.30;7.30;;;;;;;25.05;60.77;99877.00;108439;1254;68767;-77
2023/07/17 05:22:20;;;;;;;11.40;7.00;;;;;;;25.21;60.95;99876.74;107072;1261;71453;-80
2023/07/17 05:24:48;;;;;;;12.90;9.90;;;;;;;25.41;62.20;99876.34;105758;1258;60627;-79
2023/07/17 05:27:17;;;;;;;8.90;7.60;;;;;;;25.62;61.72;99877.94;105828;1257;60859;-79
2023/07/17 05:29:44;;;;;;;7.80;7.10;;;;;;;25.81;59.82;99881.72;105850;1257;73945;-74
2023/07/17 05:32:13;;;;;;;7.10;6.20;;;;;;;25.93;58.87;99879.50;105362;1256;70357;-72
2023/07/17 05:34:40;;;;;;;11.10;7.20;;;;;;;26.04;58.56;99883.48;105233;1260;71281;-74
2023/07/17 05:37:08;;;;;;;7.80;6.80;;;;;;;26.18;59.29;99885.36;105247;1260;60409;-68
2023/07/17 05:39:37;;;;;;;9.50;7.10;;;;;;;26.33;58.18;99885.02;105391;1257;60559;-73
2023/07/17 05:42:05;;;;;;;10.30;6.00;;;;;;;26.45;57.33;99884.00;105020;1264;72584;-71
2023/07/17 05:44:33;;;;;;;8.80;6.20;;;;;;;26.56;56.67;99888.83;105941;1260;69328;-71
2023/07/17 05:47:02;;;;;;;7.30;6.60;;;;;;;26.67;56.60;99885.58;106168;1256;71346;-73
2023/07/17 05:49:29;;;;;;;8.10;6.50;;;;;;;26.74;56.04;99883.30;105519;1256;60524;-71
2023/07/17 05:51:57;;;;;;;7.40;6.20;;;;;;;26.77;55.91;99882.00;105336;1260;60374;-72
2023/07/17 05:54:24;;;;;;;7.90;6.30;;;;;;;26.82;57.16;99883.31;105300;1258;73340;-70
2023/07/17 05:56:52;;;;;;;7.90;6.60;;;;;;;26.94;58.18;99888.81;105301;1257;70371;-72
2023/07/17 05:59:20;;;;;;;8.80;6.30;;;;;;;27.09;58.00;99888.70;105274;1257;70340;-70
2023/07/17 06:01:48;;;;;;;6.60;6.10;;;;;;;27.20;57.25;99884.86;105233;1258;60763;-73
2023/07/17 06:04:15;;;;;;;7.50;6.80;;;;;;;27.24;57.55;99890.27;105375;1256;62026;-70
2023/07/17 06:06:43;;;;;;;7.80;6.70;;;;;;;27.27;58.54;99890.40;105332;1254;71694;-72
2023/07/17 06:09:10;;;;;;;9.00;6.10;;;;;;;27.34;57.56;99886.02;105478;1257;70543;-70
2023/07/17 06:11:38;;;;;;;9.70;6.30;;;;;;;27.38;56.06;99882.52;105303;1257;72644;-71
2023/07/17 06:14:05;;;;;;;6.90;6.30;;;;;;;27.42;56.27;99880.21;105426;1262;60448;-74
2023/07/17 06:16:33;;;;;;;7.10;6.30;;;;;;;27.44;54.90;99882.27;106090;1255;60522;-74
2023/07/17 06:19:00;;;;;;;9.20;6.90;;;;;;;27.42;55.53;99883.44;105616;1256;72660;-73
2023/07/17 06:21:28;;;;;;;6.90;6.10;;;;;;;27.42;56.52;99880.54;105172;1256;70102;-76
2023/07/17 06:23:55;;;;;;;7.00;6.40;;;;;;;27.45;55.86;99881.84;105164;1260;71458;-72
2023/07/17 06:26:23;;;;;;;11.20;6.30;;;;;;;27.47;54.71;99878.89;105292;1256;62013;-73
2023/07/17 06:28:50;;;;;;;6.70;6.10;;;;;;;27.49;54.25;99875.34;105289;1262;60352;-74
2023/07/17 06:31:18;;;;;;;8.00;6.30;;;;;;;27.54;54.46;99881.11;105346;1260;73813;-72
2023/07/17 06:33:46;;;;;;;7.50;6.70;;;;;;;27.60;55.12;99880.27;105300;1261;69533;-74
2023/07/17 06:36:13;;;;;;;6.90;6.20;;;;;;;27.63;53.70;99877.63;105281;1256;73157;-74
2023/07/17 06:38:41;;;;;;;7.90;6.20;;;;;;;27.68;54.22;99878.77;105368;1260;60406;-73
2023/07/17 06:41:08;;;;;;;7.20;6.60;;;;;;;27.76;54.28;99878.95;105286;1260;60591;-71
2023/07/17 06:43:36;;;;;;;6.80;6.20;;;;;;;27.83;53.55;99877.29;105427;1261;73762;-72
2023/07/17 06:46:04;;;;;;;8.20;7.40;;;;;;;27.91;53.32;99875.43;106429;1255;70374;-72
2023/07/17 06:48:32;;;;;;;7.00;6.40;;;;;;;27.98;53.25;99874.90;106271;1255;71059;-73
2023/07/17 06:50:59;;;;;;;8.60;5.90;;;;;;;28.07;52.94;99874.48;106416;1256;60316;-75
2023/07/17 06:53:29;;;;;;;10.00;6.00;;;;;;;28.15;51.84;99880.02;106033;1256;60461;-74
2023/07/17 06:55:59;;;;;;;7.10;6.00;;;;;;;28.15;50.77;99884.77;106233;1261;73420;-72
2023/07/17 06:58:27;;;;;;;7.00;6.40;;;;;;;28.11;50.86;99885.45;106259;1256;68785;-72
2023/07/17 07:00:59;;;;;;;9.20;5.80;;;;;;;28.12;51.03;99886.91;106319;1257;71518;-73
2023/07/17 07:03:27;;;;;;;7.60;6.10;;;;;;;28.18;50.96;99890.20;106585;1260;60297;-75
2023/07/17 07:05:56;;;;;;;8.60;5.40;;;;;;;28.21;50.16;99885.48;107108;1256;60523;-75
2023/07/17 07:08:28;;;;;;;7.00;6.10;;;;;;;28.21;49.98;99888.11;107290;1253;72331;-76
2023/07/17 07:11:00;;;;;;;6.80;5.80;;;;;;;28.20;49.72;99888.28;107658;1252;68758;-74
2023/07/17 07:13:29;;;;;;;7.20;6.10;;;;;;;28.19;49.97;99886.65;107617;1254;73277;-73
2023/07/17 07:15:57;;;;;;;8.10;5.90;;;;;;;28.23;50.15;99883.90;107886;1253;60358;-74
2023/07/17 07:18:24;;;;;;;7.20;6.10;;;;;;;28.29;50.02;99886.33;108391;1253;61253;-74
2023/07/17 07:20:52;;;;;;;9.90;6.50;;;;;;;28.33;50.12;99888.27;107754;1253;72562;-73
2023/07/17 07:23:20;;;;;;;7.50;6.40;;;;;;;28.44;50.49;99889.44;106956;1253;70092;-74
2023/07/17 07:25:48;;;;;;;8.70;6.40;;;;;;;28.62;50.89;99886.84;106940;1259;71760;-74
2023/07/17 07:28:15;;;;;;;7.20;6.40;;;;;;;28.80;51.37;99879.20;106948;1254;60428;-71
2023/07/17 07:30:43;;;;;;;7.40;6.70;;;;;;;28.99;51.02;99876.15;106634;1253;60882;-74
2023/07/17 07:33:11;;;;;;;8.30;6.40;;;;;;;29.15;50.46;99878.06;106599;1259;73969;-74
2023/07/17 07:35:44;;;;;;;10.60;6.60;;;;;;;29.27;50.22;99876.35;106149;1259;68878;-71
2023/07/17 07:38:11;;;;;;;7.50;6.80;;;;;;;29.39;50.42;99877.81;105813;1256;71639;-72
2023/07/17 07:40:39;;;;;;;9.40;7.10;;;;;;;29.42;50.10;99873.67;105934;1252;60409;-73
2023/07/17 07:43:06;;;;;;;8.10;6.90;;;;;;;29.48;50.30;99867.80;105776;1257;60404;-72
2023/07/17 07:45:34;;;;;;;9.90;6.60;;;;;;;29.58;50.65;99863.31;105916;1257;73846;-72
2023/07/17 07:48:02;;;;;;;8.70;7.20;;;;;;;29.68;50.34;99867.41;108465;1255;70145;-74
2023/07/17 07:50:30;;;;;;;10.00;6.90;;;;;;;29.74;50.52;99865.40;106430;1258;71422;-72
2023/07/17 07:53:01;;;;;;;11.00;8.20;;;;;;;29.81;49.79;99861.25;105552;1253;60478;-71
2023/07/17 07:55:29;;;;;;;8.30;7.50;;;;;;;29.88;49.49;99862.44;105559;1254;60530;-71
2023/07/17 07:57:57;;;;;;;6.90;6.30;;;;;;;29.96;49.38;99863.86;105527;1258;72751;-74
2023/07/17 08:00:24;;;;;;;13.50;7.90;;;;;;;30.04;49.30;99865.52;105462;1259;69801;-74
2023/07/17 08:02:54;;;;;;;8.10;7.30;;;;;;;30.08;49.32;99861.55;105411;1253;71324;-74
2023/07/17 08:05:22;;;;;;;6.90;6.30;;;;;;;30.12;48.15;99859.75;105465;1258;60534;-73
2023/07/17 08:07:50;;;;;;;10.20;6.50;;;;;;;30.09;47.52;99862.59;105385;1258;60819;-73
2023/07/17 08:10:17;;;;;;;10.30;7.10;;;;;;;29.99;47.26;99860.85;105637;1254;74920;-72
2023/07/17 08:12:45;;;;;;;6.50;5.90;;;;;;;29.87;47.39;99857.57;105663;1253;69986;-75
2023/07/17 08:15:12;;;;;;;14.70;13.30;;;;;;;29.77;47.46;99856.54;105491;1254;72529;-73
2023/07/17 08:17:40;;;;;;;8.00;7.20;;;;;;;29.72;47.65;99853.98;107563;1253;60491;-72
2023/07/17 08:20:09;;;;;;;6.80;6.20;;;;;;;29.77;47.28;99857.64;106270;1257;60409;-71
2023/07/17 08:22:36;;;;;;;8.70;6.00;;;;;;;29.83;46.95;99858.50;106022;1252;72528;-73
2023/07/17 08:25:05;;;;;;;8.40;6.70;;;;;;;29.86;47.00;99862.39;105520;1257;69233;-76
2023/07/17 08:27:32;;;;;;;7.20;6.50;;;;;;;29.92;46.74;99863.42;105681;1254;71813;-72
2023/07/17 08:30:00;;;;;;;6.80;6.10;;;;;;;29.91;46.39;99861.45;105635;1257;60541;-73
2023/07/17 08:32:27;;;;;;;8.60;6.20;;;;;;;29.87;47.06;99859.65;105665;1254;61114;-73
2023/07/17 08:34:54;;;;;;;8.10;7.40;;;;;;;29.91;46.82;99859.55;105549;1253;72196;-72
2023/07/17 08:37:22;;;;;;;6.90;6.20;;;;;;;30.00;46.97;99858.77;105511;1254;69932;-71
2023/07/17 08:39:49;;;;;;;6.60;6.00;;;;;;;30.12;47.02;99857.66;105528;1254;72692;-74
2023/07/17 08:42:17;;;;;;;7.00;6.30;;;;;;;30.28;46.65;99858.55;105527;1254;60520;-71
2023/07/17 08:44:45;;;;;;;6.40;5.80;;;;;;;30.42;46.51;99857.20;106384;1253;60468;-73
2023/07/17 08:47:12;;;;;;;7.50;6.70;;;;;;;30.54;46.08;99860.46;107679;1253;73094;-71
2023/07/17 08:49:40;;;;;;;10.80;7.00;;;;;;;30.61;46.00;99859.98;107097;1253;71138;-72
2023/07/17 08:52:09;;;;;;;7.20;6.50;;;;;;;30.64;46.06;99860.54;105917;1256;72696;-72
2023/07/17 08:54:36;;;;;;;8.20;6.40;;;;;;;30.67;45.73;99860.91;105475;1257;60494;-74
2023/07/17 08:57:05;;;;;;;8.20;7.30;;;;;;;30.70;45.82;99861.73;105308;1256;60338;-73
2023/07/17 08:59:36;;;;;;;7.40;6.60;;;;;;;30.76;45.58;99861.10;105417;1260;73770;-72
2023/07/17 09:02:04;;;;;;;7.20;6.50;;;;;;;30.90;45.57;99859.89;105382;1253;71272;-75
2023/07/17 09:04:32;;;;;;;7.20;6.50;;;;;;;31.10;44.77;99863.71;105512;1256;72821;-76
2023/07/17 09:07:00;;;;;;;7.60;7.00;;;;;;;31.20;44.52;99860.42;105684;1256;60428;-74
2023/07/17 09:09:27;;;;;;;7.10;6.50;;;;;;;31.16;44.69;99856.63;105340;1254;60384;-74
2023/07/17 09:12:21;;;;;;;7.50;6.90;;;;;;;31.13;44.96;99856.75;105430;1254;72638;-74
2023/07/17 09:14:49;;;;;;;6.90;6.20;;;;;;;31.11;44.76;99852.95;105528;1253;72294;-73
2023/07/17 09:17:16;;;;;;;7.10;6.10;;;;;;;31.10;45.69;99854.52;105677;1257;71313;-73
2023/07/17 09:19:44;;;;;;;7.60;6.80;;;;;;;31.19;46.27;99852.20;106039;1254;60408;-72
2023/07/17 09:22:14;;;;;;;7.20;6.60;;;;;;;31.46;45.67;99846.80;106625;1253;60539;-73
2023/07/17 09:24:42;;;;;;;7.80;6.10;;;;;;;31.86;43.87;99852.77;105786;1259;73838;-74
2023/07/17 09:27:09;;;;;;;7.60;5.60;;;;;;;32.19;42.46;99846.34;105628;1253;70291;-73
2023/07/17 09:29:42;;;;;;;7.30;6.10;;;;;;;32.47;41.97;99846.48;105508;1257;72681;-75
2023/07/17 09:32:18;;;;;;;7.20;6.50;;;;;;;32.78;41.88;99847.08;105611;1258;61004;-74
2023/07/17 09:35:06;;;;;;;7.20;6.40;;;;;;;33.14;41.42;99837.69;105512;1257;60354;-74
2023/07/17 09:37:35;;;;;;;6.40;5.90;;;;;;;33.53;41.29;99833.21;105591;1259;72585;-74
2023/07/17 09:40:11;;;;;;;6.60;6.00;;;;;;;34.04;41.90;99832.27;105601;1259;68749;-72
2023/07/17 09:42:41;;;;;;;8.40;6.70;;;;;;;34.84;41.90;99834.81;105580;1257;72734;-74
2023/07/17 09:45:08;;;;;;;7.00;6.40;;;;;;;35.46;39.88;99829.57;105572;1259;60459;-73
2023/07/17 09:47:41;;;;;;;7.60;6.70;;;;;;;35.90;39.99;99828.75;105818;1254;60462;-75
2023/07/17 09:50:13;;;;;;;7.70;6.20;;;;;;;36.35;40.32;99825.16;106539;1254;74719;-73
2023/07/17 09:52:42;;;;;;;7.40;6.70;;;;;;;36.68;38.85;99822.39;106063;1253;61383;-73
2023/07/17 09:55:10;;;;;;;7.50;5.90;;;;;;;36.72;37.88;99824.53;105662;1253;62630;-75
2023/07/17 09:57:38;;;;;;;7.30;6.50;;;;;;;36.44;37.69;99822.39;105332;1253;60487;-72
2023/07/17 10:00:17;;;;;;;7.00;6.20;;;;;;;36.00;38.15;99821.86;105610;1257;60329;-73
2023/07/17 10:03:09;;;;;;;6.90;6.20;;;;;;;35.61;38.49;99818.06;105489;1257;65223;-71
2023/07/17 10:05:37;;;;;;;6.10;5.50;;;;;;;35.18;39.02;99820.02;106222;1253;60423;-72
2023/07/17 10:08:10;;;;;;;7.10;6.50;;;;;;;34.78;39.76;99822.99;106743;1253;72766;-71
2023/07/17 10:10:39;;;;;;;7.00;6.30;;;;;;;34.49;40.05;99821.60;106169;1258;60359;-75
2023/07/17 10:13:06;;;;;;;6.90;6.30;;;;;;;34.23;40.68;99822.65;106256;1258;60436;-74
2023/07/17 10:15:34;;;;;;;7.30;6.60;;;;;;;33.97;40.27;99829.02;105901;1257;73854;-72
2023/07/17 10:18:02;;;;;;;9.00;6.70;;;;;;;33.69;40.59;99823.77;105807;1259;68442;-72
2023/07/17 10:20:30;;;;;;;8.20;6.90;;;;;;;33.47;41.07;99824.84;106311;1253;71186;-72
2023/07/17 10:22:57;;;;;;;6.50;5.90;;;;;;;33.37;41.98;99820.96;106207;1256;59312;-70
2023/07/17 10:25:26;;;;;;;7.90;7.00;;;;;;;33.30;41.91;99822.06;105632;1257;60341;-74
2023/07/17 10:28:03;;;;;;;7.20;6.50;;;;;;;33.13;41.73;99819.06;105501;1253;73879;-75
2023/07/17 10:30:35;;;;;;;7.60;6.60;;;;;;;32.88;42.14;99818.66;106367;1253;70419;-73
2023/07/17 10:33:13;;;;;;;;;;;;;;;32.68;42.25;99817.09;106119;1256;71345;-73
2023/07/17 10:35:52;;;;;;;8.30;7.40;;;;;;;32.42;42.24;99817.05;106217;1259;60387;-73
2023/07/17 10:38:31;;;;;;;7.80;6.50;;;;;;;32.21;42.70;99813.70;106220;1253;60489;-72
2023/07/17 10:41:11;;;;;;;7.50;6.80;;;;;;;32.15;42.75;99812.02;106313;1254;73070;-73
2023/07/17 10:43:56;;;;;;;7.40;6.80;;;;;;;32.18;42.83;99809.60;106201;1254;71201;-74
2023/07/17 10:46:43;;;;;;;8.20;7.40;;;;;;;32.20;42.97;99809.82;106388;1258;73763;-74
2023/07/17 10:49:12;;;;;;;8.50;7.60;;;;;;;32.22;43.22;99808.95;107074;1253;59237;-73
2023/07/17 10:51:48;;;;;;;7.20;6.60;;;;;;;32.22;44.06;99805.72;108336;1253;59203;-71
2023/07/17 10:54:17;;;;;;;7.40;6.70;;;;;;;32.28;44.07;99806.48;107170;1253;73773;-74
2023/07/17 10:56:47;;;;;;;7.90;7.20;;;;;;;32.33;43.64;99810.93;106310;1253;68718;-73
2023/07/17 10:59:16;;;;;;;7.50;6.90;;;;;;;32.35;43.54;99810.11;106283;1254;71291;-73
2023/07/17 11:01:45;;;;;;;8.90;6.80;;;;;;;32.36;43.61;99808.44;106023;1252;60510;-74
2023/07/17 11:04:20;;;;;;;8.10;7.00;;;;;;;32.32;43.10;99805.46;106418;1256;60596;-74
2023/07/17 11:06:51;;;;;;;7.90;7.10;;;;;;;32.24;43.54;99807.04;106282;1254;73889;-74
2023/07/17 11:09:19;;;;;;;8.70;7.90;;;;;;;32.15;43.39;99806.31;106204;1258;69032;-72
2023/07/17 11:11:46;;;;;;;11.20;9.60;;;;;;;32.07;43.31;99803.36;106187;1253;72771;-73
2023/07/17 11:14:14;;;;;;;7.20;6.60;;;;;;;31.99;43.67;99804.00;106169;1253;60431;-73
2023/07/17 11:16:42;;;;;;;10.20;9.20;;;;;;;31.98;43.79;99801.41;106061;1260;60509;-73
2023/07/17 11:19:12;;;;;;;9.30;8.50;;;;;;;32.05;43.76;99802.08;106891;1253;72979;-72
2023/07/17 11:21:39;;;;;;;8.00;7.20;;;;;;;32.20;44.15;99803.02;107583;1253;71003;-74
2023/07/17 11:24:07;;;;;;;7.70;6.90;;;;;;;32.49;44.20;99802.03;106658;1254;72852;-71
2023/07/17 11:26:35;;;;;;;6.70;6.10;;;;;;;32.79;43.07;99795.81;105886;1253;60499;-75
2023/07/17 11:29:02;;;;;;;7.30;6.70;;;;;;;33.07;43.06;99799.45;105594;1253;60456;-77
2023/07/17 11:31:32;;;;;;;7.00;6.30;;;;;;;33.39;42.55;99794.08;105334;1253;72567;-74